Time,TemperatureF,DewpointF,PressureIn,WindDirection,WindDirectionDegrees,WindSpeedMPH,WindSpeedGustMPH,Humidity,HourlyPrecipIn,Conditions,Clouds,dailyrainin,SoftwareType,DateUTC
2013-02-26 16:38:00,37.3,34.9,29.57,SE,141,4.0,-999.0,91,0.04,,,0.75,Wunderground v.1.15,2013-02-26 21:38:00,
2013-02-26 16:43:00,37.4,35.0,29.57,ENE,78,3.0,-999.0,91,0.04,,,0.76,Wunderground v.1.15,2013-02-26 21:43:00,
2013-02-26 16:49:00,37.5,35.1,29.56,SSE,160,3.0,-999.0,91,0.09,,,0.77,Wunderground v.1.15,2013-02-26 21:49:00,
2013-02-26 16:55:00,37.5,35.1,29.56,South,180,4.0,-999.0,91,0.11,,,0.78,Wunderground v.1.15,2013-02-26 21:55:00,
2013-02-26 17:01:00,37.5,35.1,29.56,SSE,153,4.0,-999.0,91,0.14,,,0.79,Wunderground v.1.15,2013-02-26 22:01:00,
2013-02-26 17:07:00,37.5,35.1,29.55,SE,124,4.0,-999.0,91,0.17,,,0.81,Wunderground v.1.15,2013-02-26 22:07:00,
2013-02-26 17:13:00,37.4,35.0,29.55,North,355,4.0,-999.0,91,0.11,,,0.82,Wunderground v.1.15,2013-02-26 22:13:00,
2013-02-26 17:18:00,37.3,34.9,29.55,ESE,117,3.0,-999.0,91,0.14,,,0.83,Wunderground v.1.15,2013-02-26 22:18:00,
2013-02-26 17:24:00,37.2,34.8,29.55,SE,132,2.0,-999.0,91,0.25,,,0.85,Wunderground v.1.15,2013-02-26 22:24:00,
2013-02-26 17:30:00,37.2,34.8,29.54,SE,124,2.0,-999.0,91,0.17,,,0.87,Wunderground v.1.15,2013-02-26 22:30:00,
2013-02-26 17:36:00,37.2,35.1,29.54,SE,128,2.0,-999.0,92,0.06,,,0.87,Wunderground v.1.15,2013-02-26 22:36:00,
2013-02-26 17:42:00,37.3,35.2,29.54,South,169,2.0,-999.0,92,0.06,,,0.88,Wunderground v.1.15,2013-02-26 22:42:00,
2013-02-26 17:48:00,37.3,35.2,29.53,SE,139,2.0,-999.0,92,0.09,,,0.89,Wunderground v.1.15,2013-02-26 22:48:00,
2013-02-26 17:54:00,37.5,35.4,29.53,East,91,3.0,-999.0,92,0.07,,,0.90,Wunderground v.1.15,2013-02-26 22:54:00,
2013-02-26 17:59:00,37.8,35.7,29.53,ESE,119,3.0,-999.0,92,0.07,,,0.90,Wunderground v.1.15,2013-02-26 22:59:00,
2013-02-26 18:05:00,37.8,35.7,29.53,East,96,2.0,-999.0,92,0.06,,,0.91,Wunderground v.1.15,2013-02-26 23:05:00,
2013-02-26 18:11:00,37.9,35.8,29.53,SSE,159,2.0,-999.0,92,0.06,,,0.91,Wunderground v.1.15,2013-02-26 23:11:00,
2013-02-26 18:17:00,38.1,36.0,29.53,ESE,119,2.0,-999.0,92,0.05,,,0.92,Wunderground v.1.15,2013-02-26 23:17:00,
2013-02-26 18:23:00,38.2,36.1,29.53,SSE,166,2.0,-999.0,92,0.05,,,0.92,Wunderground v.1.15,2013-02-26 23:23:00,
2013-02-26 18:29:00,38.2,36.1,29.53,ENE,65,2.0,-999.0,92,0.06,,,0.93,Wunderground v.1.15,2013-02-26 23:29:00,
2013-02-26 18:35:00,38.3,36.2,29.53,South,175,2.0,-999.0,92,0.06,,,0.93,Wunderground v.1.15,2013-02-26 23:35:00,
2013-02-26 18:41:00,38.4,36.0,29.53,SE,144,3.0,-999.0,91,0.05,,,0.94,Wunderground v.1.15,2013-02-26 23:41:00,
2013-02-26 18:47:00,38.4,36.0,29.52,South,170,3.0,-999.0,91,0.05,,,0.94,Wunderground v.1.15,2013-02-26 23:47:00,
2013-02-26 18:53:00,38.4,36.0,29.52,SSE,163,4.0,-999.0,91,0.12,,,0.96,Wunderground v.1.15,2013-02-26 23:53:00,
2013-02-26 18:58:00,38.4,36.3,29.52,SSE,163,3.0,-999.0,92,0.17,,,0.97,Wunderground v.1.15,2013-02-26 23:58:00,
2013-02-26 19:04:00,38.5,36.4,29.53,SSE,156,4.0,-999.0,92,0.12,,,0.98,Wunderground v.1.15,2013-02-27 00:04:00,
2013-02-26 19:10:00,38.6,36.5,29.52,East,88,3.0,-999.0,92,0.12,,,0.99,Wunderground v.1.15,2013-02-27 00:10:00,
2013-02-26 19:16:00,38.7,36.6,29.52,ESE,119,2.0,-999.0,92,0.06,,,0.99,Wunderground v.1.15,2013-02-27 00:16:00,
2013-02-26 19:22:00,38.7,36.6,29.52,East,92,2.0,-999.0,92,0.04,,,0.99,Wunderground v.1.15,2013-02-27 00:22:00,
2013-02-26 19:28:00,38.7,36.6,29.52,SSW,198,3.0,-999.0,92,0.00,,,0.99,Wunderground v.1.15,2013-02-27 00:28:00,
2013-02-26 19:33:00,38.8,36.7,29.52,SSE,156,3.0,-999.0,92,0.00,,,0.99,Wunderground v.1.15,2013-02-27 00:33:00,
2013-02-26 19:38:00,38.8,36.7,29.52,ESE,111,3.0,-999.0,92,0.00,,,0.99,Wunderground v.1.15,2013-02-27 00:38:00,
2013-02-26 19:44:00,39.0,36.9,29.52,SE,138,3.0,-999.0,92,0.00,,,0.99,Wunderground v.1.15,2013-02-27 00:44:00,
2013-02-26 19:50:00,39.0,36.9,29.51,East,95,3.0,-999.0,92,0.00,,,0.99,Wunderground v.1.15,2013-02-27 00:50:00,
2013-02-26 19:56:00,39.0,36.9,29.51,SE,143,2.0,-999.0,92,0.00,,,0.99,Wunderground v.1.15,2013-02-27 00:56:00,
2013-02-26 20:02:00,39.1,37.0,29.51,SSE,162,2.0,-999.0,92,0.00,,,0.99,Wunderground v.1.15,2013-02-27 01:02:00,
2013-02-26 20:07:00,39.2,37.1,29.51,SSE,161,3.0,-999.0,92,0.00,,,0.99,Wunderground v.1.15,2013-02-27 01:07:00,
2013-02-26 20:13:00,39.2,37.1,29.51,SSE,148,4.0,-999.0,92,0.00,,,1.00,Wunderground v.1.15,2013-02-27 01:13:00,
2013-02-26 20:19:00,39.3,37.2,29.50,SSE,159,4.0,-999.0,92,0.00,,,1.00,Wunderground v.1.15,2013-02-27 01:19:00,
2013-02-26 20:25:00,39.4,37.3,29.50,SE,136,4.0,-999.0,92,0.00,,,1.00,Wunderground v.1.15,2013-02-27 01:25:00,
2013-02-26 20:31:00,39.5,37.4,29.50,SSE,161,4.0,-999.0,92,0.00,,,1.00,Wunderground v.1.15,2013-02-27 01:31:00,
2013-02-26 20:37:00,39.5,37.1,29.50,SSE,165,4.0,-999.0,91,0.00,,,1.00,Wunderground v.1.15,2013-02-27 01:37:00,
2013-02-26 20:43:00,39.6,37.2,29.50,SSE,148,4.0,-999.0,91,0.00,,,1.00,Wunderground v.1.15,2013-02-27 01:43:00,
2013-02-26 20:48:00,39.7,37.3,29.51,SSE,159,3.0,-999.0,91,0.00,,,1.00,Wunderground v.1.15,2013-02-27 01:48:00,
2013-02-26 20:55:00,39.8,37.4,29.51,South,173,3.0,-999.0,91,0.00,,,1.00,Wunderground v.1.15,2013-02-27 01:55:00,
2013-02-26 21:00:00,39.9,37.5,29.51,SSE,159,3.0,-999.0,91,0.00,,,1.00,Wunderground v.1.15,2013-02-27 02:00:00,
2013-02-26 21:06:00,39.9,37.5,29.51,SSE,162,3.0,-999.0,91,0.00,,,1.00,Wunderground v.1.15,2013-02-27 02:06:00,
2013-02-26 21:12:00,40.0,37.6,29.51,SE,126,4.0,-999.0,91,0.00,,,1.00,Wunderground v.1.15,2013-02-27 02:12:00,
2013-02-26 21:18:00,40.0,37.6,29.51,East,95,3.0,-999.0,91,0.00,,,1.01,Wunderground v.1.15,2013-02-27 02:18:00,
2013-02-26 21:24:00,40.0,37.6,29.51,South,173,3.0,-999.0,91,0.00,,,1.01,Wunderground v.1.15,2013-02-27 02:24:00,
2013-02-26 21:29:00,40.0,37.6,29.51,ESE,121,3.0,-999.0,91,0.00,,,1.01,Wunderground v.1.15,2013-02-27 02:29:00,
2013-02-26 21:35:00,40.1,37.7,29.50,South,180,4.0,-999.0,91,0.00,,,1.01,Wunderground v.1.15,2013-02-27 02:35:00,
2013-02-26 21:41:00,40.1,37.7,29.50,East,101,5.0,-999.0,91,0.00,,,1.01,Wunderground v.1.15,2013-02-27 02:41:00,
2013-02-26 21:47:00,40.1,37.4,29.49,South,176,5.0,-999.0,90,0.00,,,1.01,Wunderground v.1.15,2013-02-27 02:47:00,
2013-02-26 21:53:00,40.0,37.3,29.49,ESE,116,4.0,-999.0,90,0.00,,,1.01,Wunderground v.1.15,2013-02-27 02:53:00,
2013-02-26 21:58:00,40.0,37.3,29.49,SSE,155,4.0,-999.0,90,0.00,,,1.01,Wunderground v.1.15,2013-02-27 02:58:00,
2013-02-26 22:04:00,39.9,37.2,29.49,SSE,167,4.0,-999.0,90,0.21,,,1.03,Wunderground v.1.15,2013-02-27 03:04:00,
2013-02-26 22:10:00,39.8,37.4,29.49,SSE,153,4.0,-999.0,91,0.07,,,1.03,Wunderground v.1.15,2013-02-27 03:10:00,
2013-02-26 22:16:00,39.8,37.4,29.49,South,174,4.0,-999.0,91,0.04,,,1.03,Wunderground v.1.15,2013-02-27 03:16:00,
2013-02-26 22:22:00,39.8,37.4,29.49,SSE,160,4.0,-999.0,91,0.00,,,1.04,Wunderground v.1.15,2013-02-27 03:22:00,
2013-02-26 22:28:00,39.8,37.4,29.49,ESE,113,4.0,-999.0,91,0.00,,,1.04,Wunderground v.1.15,2013-02-27 03:28:00,
2013-02-26 22:34:00,39.8,37.4,29.49,South,172,4.0,-999.0,91,0.00,,,1.04,Wunderground v.1.15,2013-02-27 03:34:00,
2013-02-26 22:40:00,39.8,37.4,29.49,South,174,5.0,-999.0,91,0.00,,,1.04,Wunderground v.1.15,2013-02-27 03:40:00,
2013-02-26 22:46:00,39.8,37.1,29.49,SE,145,5.0,-999.0,90,0.00,,,1.04,Wunderground v.1.15,2013-02-27 03:46:00,
2013-02-26 22:52:00,39.8,37.1,29.49,SSE,156,5.0,-999.0,90,0.00,,,1.04,Wunderground v.1.15,2013-02-27 03:52:00,
2013-02-26 22:58:00,39.9,37.2,29.49,SSE,147,5.0,-999.0,90,0.00,,,1.04,Wunderground v.1.15,2013-02-27 03:58:00,
2013-02-26 23:04:00,39.8,37.1,29.49,SSE,166,6.0,-999.0,90,0.00,,,1.04,Wunderground v.1.15,2013-02-27 04:04:00,
2013-02-26 23:09:00,39.8,37.1,29.49,South,169,5.0,-999.0,90,0.00,,,1.04,Wunderground v.1.15,2013-02-27 04:09:00,
2013-02-26 23:14:00,39.8,37.1,29.48,SSE,159,4.0,-999.0,90,0.00,,,1.04,Wunderground v.1.15,2013-02-27 04:14:00,
2013-02-26 23:20:00,39.8,37.1,29.48,SSE,161,5.0,-999.0,90,0.00,,,1.04,Wunderground v.1.15,2013-02-27 04:20:00,
2013-02-26 23:26:00,39.8,37.1,29.48,SE,142,5.0,-999.0,90,0.00,,,1.04,Wunderground v.1.15,2013-02-27 04:26:00,
2013-02-26 23:32:00,39.7,37.0,29.48,South,188,4.0,-999.0,90,0.00,,,1.04,Wunderground v.1.15,2013-02-27 04:32:00,
2013-02-26 23:38:00,39.7,37.0,29.48,SSE,166,5.0,-999.0,90,0.00,,,1.04,Wunderground v.1.15,2013-02-27 04:38:00,
2013-02-26 23:44:00,39.7,37.0,29.48,SSE,147,5.0,-999.0,90,0.00,,,1.04,Wunderground v.1.15,2013-02-27 04:44:00,
2013-02-26 23:50:00,39.6,36.9,29.48,SSE,165,5.0,-999.0,90,0.00,,,1.04,Wunderground v.1.15,2013-02-27 04:50:00,
2013-02-26 23:55:00,39.6,36.9,29.48,SSE,156,6.0,-999.0,90,0.00,,,1.04,Wunderground v.1.15,2013-02-27 04:55:00,